D/T METAR WX W/DIR W/SPE G/SPE TEMP DEWP
3/07/20 23:50 EGLC 032250Z AUTO 24015KT 9999 OVC015 16/13 Q1013 WSW (240°) 17.3mph 16°C 13°C
3/07/20 23:20 EGLC 032220Z AUTO 24014KT 210V280 9999 -RA OVC015 16/13 Q1013 -RA WSW (240°) 16.1mph 16°C 13°C
3/07/20 22:50 EGLC 032150Z AUTO 24013KT 9999 -RA BKN015 OVC019 16/13 Q1014 -RA WSW (240°) 15.0mph 16°C 13°C
3/07/20 22:20 EGLC 032120Z AUTO 23014KT 9999 -RA BKN017 16/13 Q1014 -RA SW (230°) 16.1mph 16°C 13°C
3/07/20 21:50 EGLC 032050Z AUTO 23013KT 9999 -RA BKN017 16/13 Q1014 -RA SW (230°) 15.0mph 16°C 13°C
3/07/20 21:20 EGLC 032020Z AUTO 23014KT 9999 -RA SCT020 SCT044 16/12 Q1014 -RA SW (230°) 16.1mph 16°C 12°C
3/07/20 20:50 EGLC 031950Z AUTO 23013KT 9999 -RA NCD 16/12 Q1014 -RA SW (230°) 15.0mph 16°C 12°C
3/07/20 20:20 EGLC 031920Z AUTO 23013KT 9999 -RA FEW043 16/12 Q1015 -RA SW (230°) 15.0mph 16°C 12°C
3/07/20 19:50 EGLC 031850Z AUTO 23016G26KT 9999 -RA NCD 17/11 Q1015 -RA SW (230°) 18.4mph 29.9mph 17°C 11°C
3/07/20 19:20 EGLC 031820Z AUTO 25015KT 9999 -RA NCD 18/10 Q1015 -RA WSW (250°) 17.3mph 18°C 10°C
3/07/20 18:50 EGLC 031750Z AUTO 23016KT 9999 NCD 19/10 Q1014 SW (230°) 18.4mph 19°C 10°C
3/07/20 18:20 EGLC 031720Z AUTO 24016KT 9999 FEW036 19/10 Q1014 WSW (240°) 18.4mph 19°C 10°C
3/07/20 17:50 EGLC 031650Z AUTO 24017KT 9999 NCD 20/10 Q1014 WSW (240°) 19.6mph 20°C 10°C
3/07/20 17:20 EGLC 031620Z AUTO 24014G24KT 9999 NCD 20/10 Q1015 WSW (240°) 16.1mph 27.6mph 20°C 10°C
3/07/20 16:50 EGLC 031550Z 23016KT 200V260 CAVOK 20/09 Q1015 SW (230°) 18.4mph 20°C 9°C
3/07/20 16:20 EGLC 031520Z AUTO 24019KT 9999 NCD 20/09 Q1015 WSW (240°) 21.9mph 20°C 9°C
3/07/20 15:50 EGLC 031450Z AUTO 24016KT 9999 FEW040 20/09 Q1015 WSW (240°) 18.4mph 20°C 9°C
3/07/20 15:20 EGLC 031420Z AUTO 24014KT 9999 BKN033 21/11 Q1015 WSW (240°) 16.1mph 21°C 11°C
3/07/20 14:50 EGLC 031350Z AUTO 23015KT 190V260 9999 BKN035 21/11 Q1015 SW (230°) 17.3mph 21°C 11°C
3/07/20 14:20 EGLC 031320Z AUTO 24015KT 9999 SCT038 21/10 Q1015 WSW (240°) 17.3mph 21°C 10°C
3/07/20 13:50 EGLC 031250Z AUTO 24016KT 9999 BKN037 21/10 Q1015 WSW (240°) 18.4mph 21°C 10°C
3/07/20 13:20 EGLC 031220Z AUTO 23015KT 200V260 9999 BKN041 21/09 Q1016 SW (230°) 17.3mph 21°C 9°C
3/07/20 12:50 EGLC 031150Z AUTO 24014KT 200V280 9999 BKN040 21/09 Q1016 WSW (240°) 16.1mph 21°C 9°C
3/07/20 12:20 EGLC 031120Z AUTO 24014KT 200V260 9999 NCD 20/09 Q1016 WSW (240°) 16.1mph 20°C 9°C
3/07/20 11:50 EGLC 031050Z AUTO 24013KT 210V280 9999 SCT038 20/09 Q1016 WSW (240°) 15.0mph 20°C 9°C
3/07/20 11:20 EGLC 031020Z AUTO 25014KT 220V280 9999 BKN036 20/09 Q1016 WSW (250°) 16.1mph 20°C 9°C
3/07/20 10:20 EGLC 030920Z AUTO 25012KT 210V280 9999 BKN032 18/10 Q1016 WSW (250°) 13.8mph 18°C 10°C
3/07/20 09:50 EGLC 030850Z AUTO 23012KT 200V270 9999 SCT028 SCT036 18/10 Q1016 SW (230°) 13.8mph 18°C 10°C
3/07/20 09:20 EGLC 030820Z AUTO 24010KT 200V270 9999 BKN027 17/10 Q1016 WSW (240°) 11.5mph 17°C 10°C
3/07/20 08:20 EGLC 030720Z AUTO 25010KT 9999 NCD 15/10 Q1016 WSW (250°) 11.5mph 15°C 10°C
3/07/20 07:50 EGLC 030650Z AUTO 24009KT 9999 NCD 15/11 Q1016 WSW (240°) 10.4mph 15°C 11°C
3/07/20 07:20 EGLC 030620Z AUTO 24009KT 9999 FEW014 14/11 Q1016 WSW (240°) 10.4mph 14°C 11°C
3/07/20 06:50 EGLC 030550Z AUTO 24008KT 9999 SCT012 14/11 Q1017 WSW (240°) 9.2mph 14°C 11°C
3/07/20 06:20 EGLC 030520Z AUTO 24008KT 9999 FEW011 14/11 Q1017 WSW (240°) 9.2mph 14°C 11°C
3/07/20 05:50 EGLC 030450Z AUTO 24008KT 9999 FEW040 14/11 Q1017 WSW (240°) 9.2mph 14°C 11°C
3/07/20 05:20 EGLC 030420Z AUTO 24008KT 9999 SCT045 14/11 Q1016 WSW (240°) 9.2mph 14°C 11°C
3/07/20 04:50 EGLC 030350Z AUTO 24008KT 9999 NCD 14/12 Q1016 WSW (240°) 9.2mph 14°C 12°C
3/07/20 04:20 EGLC 030320Z AUTO 24007KT 9999 NCD 14/12 Q1016 WSW (240°) 8.1mph 14°C 12°C
3/07/20 03:50 EGLC 030250Z AUTO 24010KT 9999 NCD 15/12 Q1016 WSW (240°) 11.5mph 15°C 12°C
3/07/20 03:20 EGLC 030220Z AUTO 24007KT 9999 NCD 15/13 Q1016 WSW (240°) 8.1mph 15°C 13°C
3/07/20 02:50 EGLC 030150Z AUTO 25006KT 9999 NCD 16/13 Q1016 WSW (250°) 6.9mph 16°C 13°C
3/07/20 02:20 EGLC 030120Z AUTO 29008KT 9999 NCD 17/11 Q1016 WNW (290°) 9.2mph 17°C 11°C
3/07/20 01:50 EGLC 030050Z AUTO 28009KT 9999 NCD 17/12 Q1015 W (280°) 10.4mph 17°C 12°C
3/07/20 01:20 EGLC 030020Z AUTO 27007KT 220V330 9999 NCD 17/13 Q1015 W (270°) 8.1mph 17°C 13°C
3/07/20 00:50 EGLC 022350Z AUTO 26005KT 9999 FEW036 17/14 Q1015 W (260°) 5.8mph 17°C 14°C
3/07/20 00:20 EGLC 022320Z AUTO 28004KT 9999 SCT038 BKN047 17/14 Q1015 W (280°) 4.6mph 17°C 14°C
2/07/20 23:50 EGLC 022250Z AUTO 00000KT 9999 BKN040 17/15 Q1015 N (0°) 17°C 15°C
2/07/20 22:50 EGLC 022150Z AUTO 21003KT 9999 FEW029 17/15 Q1015 SSW (210°) 3.5mph 17°C 15°C
2/07/20 22:20 EGLC 022120Z AUTO 27006KT 9999 NCD 17/14 Q1015 W (270°) 6.9mph 17°C 14°C
2/07/20 21:50 EGLC 022050Z AUTO 24004KT 9999 NCD 17/15 Q1015 WSW (240°) 4.6mph 17°C 15°C
2/07/20 21:20 EGLC 022020Z AUTO VRB03KT 9999 NCD 17/15 Q1014 N (0°) 3.5mph 17°C 15°C
2/07/20 20:50 EGLC 021950Z AUTO 22003KT 9999 //////TCU 17/15 Q1014 SW (220°) 3.5mph 17°C 15°C
2/07/20 20:20 EGLC 021920Z AUTO VRB03KT 9999 -RA SCT032/// BKN043/// //////CB 17/14 Q1014 -RA N (0°) 3.5mph 17°C 14°C
2/07/20 19:50 EGLC 021850Z AUTO 25005KT 7000 -RA FEW029/// //////CB 17/14 Q1014 -RA WSW (250°) 5.8mph 17°C 14°C
2/07/20 18:50 EGLC 021750Z AUTO VRB01KT 9999 -RA FEW036/// //////CB 17/14 Q1013 RERA -RA N (0°) 1.2mph 17°C 14°C
2/07/20 18:20 EGLC 021720Z AUTO 30008KT 270V350 4100 RA FEW032/// SCT041/// //////CB 16/14 Q1013 RA WNW (300°) 9.2mph 16°C 14°C
2/07/20 17:50 EGLC 021650Z AUTO 30015KT 270V330 9999 -RA SCT030/// SCT046/// //////CB 18/13 Q1012 -RA WNW (300°) 17.3mph 18°C 13°C
2/07/20 17:20 EGLC 021620Z AUTO 25013KT 9999 FEW045/// //////CB 21/12 Q1012 WSW (250°) 15.0mph 21°C 12°C
2/07/20 16:50 EGLC 021550Z AUTO 26011KT 9999 //////CB 21/13 Q1012 W (260°) 12.7mph 21°C 13°C
2/07/20 16:20 EGLC 021520Z AUTO 25013KT 9999 //////CB 20/12 Q1012 WSW (250°) 15.0mph 20°C 12°C
2/07/20 15:50 EGLC 021450Z AUTO 25013KT 220V290 9999 SCT027/// //////CB 20/12 Q1011 WSW (250°) 15.0mph 20°C 12°C
2/07/20 15:20 EGLC 021420Z AUTO 25011KT 220V280 9999 //////CB 20/13 Q1011 WSW (250°) 12.7mph 20°C 13°C
2/07/20 14:50 EGLC 021350Z AUTO 25012KT 9999 FEW026/// SCT044/// //////TCU 19/13 Q1011 WSW (250°) 13.8mph 19°C 13°C
2/07/20 14:20 EGLC 021320Z AUTO 25012KT 9999 SCT024/// SCT029/// //////CB 19/13 Q1011 WSW (250°) 13.8mph 19°C 13°C
2/07/20 13:50 EGLC 021250Z AUTO 25011KT 9999 -RA FEW025/// SCT043/// //////CB 19/13 Q1011 -RA WSW (250°) 12.7mph 19°C 13°C
2/07/20 13:20 EGLC 021220Z AUTO 28012KT 250V330 9999 SCT029/// BKN035/// BKN047/// //////CB 18/12 Q1011 W (280°) 13.8mph 18°C 12°C
2/07/20 12:20 EGLC 021120Z AUTO 29005KT 250V320 9999 BKN022/// BKN030/// //////CB 17/14 Q1011 WNW (290°) 5.8mph 17°C 14°C
2/07/20 11:50 EGLC 021050Z AUTO 24010KT 9999 -RA BKN025/// BKN047/// //////CB 18/11 Q1010 -RA WSW (240°) 11.5mph 18°C 11°C
2/07/20 11:20 EGLC 021020Z AUTO 27011KT 9999 SCT022/// BKN032/// BKN042/// //////CB 18/11 Q1010 W (270°) 12.7mph 18°C 11°C
2/07/20 10:50 EGLC 020950Z AUTO 25011KT 9999 SCT021 BKN047 18/12 Q1010 WSW (250°) 12.7mph 18°C 12°C
2/07/20 10:20 EGLC 020920Z AUTO 25011KT 9999 BKN021 BKN030 OVC048 17/11 Q1010 WSW (250°) 12.7mph 17°C 11°C
2/07/20 09:50 EGLC 020850Z AUTO 25011KT 9999 SCT020 BKN025 BKN029 17/11 Q1010 WSW (250°) 12.7mph 17°C 11°C
2/07/20 09:20 EGLC 020820Z AUTO 24012KT 9999 SCT021 BKN038 BKN045 17/11 Q1010 WSW (240°) 13.8mph 17°C 11°C
2/07/20 08:50 EGLC 020750Z AUTO 26011KT 9999 FEW021 BKN044 17/11 Q1010 W (260°) 12.7mph 17°C 11°C
2/07/20 08:20 EGLC 020720Z AUTO 26012KT 9999 FEW020 16/10 Q1009 W (260°) 13.8mph 16°C 10°C
2/07/20 07:50 EGLC 020650Z AUTO 24010KT 9999 NCD 16/11 Q1009 WSW (240°) 11.5mph 16°C 11°C
2/07/20 07:20 EGLC 020620Z AUTO 25007KT 9999 NCD 15/11 Q1009 WSW (250°) 8.1mph 15°C 11°C
2/07/20 06:50 EGLC 020550Z AUTO 25009KT 9999 NCD 14/11 Q1009 WSW (250°) 10.4mph 14°C 11°C
2/07/20 06:20 EGLC 020520Z AUTO 25009KT 9999 SCT047 14/10 Q1009 WSW (250°) 10.4mph 14°C 10°C
2/07/20 05:50 EGLC 020450Z AUTO 24009KT 9999 NCD 13/10 Q1009 WSW (240°) 10.4mph 13°C 10°C
2/07/20 05:20 EGLC 020420Z AUTO 24008KT 9999 NCD 14/10 Q1009 WSW (240°) 9.2mph 14°C 10°C
2/07/20 04:50 EGLC 020350Z AUTO 24009KT 9999 NCD 14/10 Q1009 WSW (240°) 10.4mph 14°C 10°C
2/07/20 04:20 EGLC 020320Z AUTO 24008KT 9999 NCD 14/10 Q1009 WSW (240°) 9.2mph 14°C 10°C
2/07/20 03:50 EGLC 020250Z AUTO 24006KT 200V280 9999 NCD 14/10 Q1009 WSW (240°) 6.9mph 14°C 10°C
2/07/20 03:20 EGLC 020220Z AUTO 24007KT 9999 NCD 15/10 Q1009 WSW (240°) 8.1mph 15°C 10°C
2/07/20 02:50 EGLC 020150Z AUTO 24008KT 210V270 9999 NCD 15/09 Q1009 WSW (240°) 9.2mph 15°C 9°C
2/07/20 02:20 EGLC 020120Z AUTO 25008KT 9999 FEW045 15/09 Q1008 WSW (250°) 9.2mph 15°C 9°C
2/07/20 01:50 EGLC 020050Z AUTO 27011KT 9999 FEW021 16/09 Q1008 W (270°) 12.7mph 16°C 9°C
2/07/20 01:20 EGLC 020020Z AUTO 25010KT 9999 BKN017 16/13 Q1008 WSW (250°) 11.5mph 16°C 13°C
2/07/20 00:50 EGLC 012350Z AUTO 25009KT 9999 SCT015 16/13 Q1008 WSW (250°) 10.4mph 16°C 13°C
2/07/20 00:20 EGLC 012320Z AUTO 24007KT 9999 FEW017 17/13 Q1008 WSW (240°) 8.1mph 17°C 13°C
1/07/20 23:50 EGLC 012250Z AUTO 24007KT 9999 NCD 17/13 Q1008 WSW (240°) 8.1mph 17°C 13°C
1/07/20 23:20 EGLC 012220Z AUTO 24007KT 9999 NCD 17/13 Q1008 WSW (240°) 8.1mph 17°C 13°C
1/07/20 22:50 EGLC 012150Z AUTO 23007KT 9999 NCD 17/14 Q1008 SW (230°) 8.1mph 17°C 14°C
1/07/20 22:20 EGLC 012120Z AUTO 23007KT 190V260 9999 NCD 17/14 Q1007 SW (230°) 8.1mph 17°C 14°C
1/07/20 21:50 EGLC 012050Z AUTO 24006KT 9999 NCD 17/13 Q1007 WSW (240°) 6.9mph 17°C 13°C